createdAt,value
2019-05-28T00:02:24.086Z,79.3
2019-05-28T00:07:24.686Z,79.3
2019-05-28T00:12:21.738Z,79.4
2019-05-28T00:17:22.092Z,79.6
2019-05-28T00:22:22.883Z,79.8
2019-05-28T00:27:23.884Z,80.2
2019-05-28T00:32:21.795Z,80.2
2019-05-28T00:37:23.664Z,80.4
2019-05-28T00:42:25.365Z,80.3
2019-05-28T00:47:23.166Z,80.6
2019-05-28T00:52:24.806Z,80.8
2019-05-28T00:57:24.975Z,80.7
2019-05-28T01:02:28.765Z,80.7
2019-05-28T01:07:24.925Z,80.6
2019-05-28T01:17:45.524Z,80.7
2019-05-28T01:22:45.269Z,80.7
2019-05-28T01:27:45.209Z,80.7
2019-05-28T01:32:45.201Z,80.5
2019-05-28T01:37:45.172Z,80.4
2019-05-28T01:42:45.204Z,80.3
2019-05-28T01:47:45.248Z,80.4
2019-05-28T01:52:45.193Z,80.6
2019-05-28T01:57:45.326Z,80.7
2019-05-28T02:02:45.439Z,80.8
2019-05-28T02:07:45.218Z,80.9
2019-05-28T02:12:45.289Z,81.1
2019-05-28T02:17:45.215Z,81.2
2019-05-28T02:22:45.217Z,81.6
2019-05-28T02:27:45.192Z,80.9
2019-05-28T02:32:45.259Z,81.5
2019-05-28T02:37:45.248Z,81.6
2019-05-28T02:42:45.333Z,81.6
2019-05-28T02:47:45.252Z,82
2019-05-28T02:52:45.222Z,82
2019-05-28T02:57:45.209Z,82.2
2019-05-28T03:02:45.833Z,82.4
2019-05-28T03:07:45.202Z,82.4
2019-05-28T03:12:45.307Z,82.7
2019-05-28T03:17:45.230Z,83.1
2019-05-28T03:22:45.502Z,83.3
2019-05-28T03:27:45.475Z,83.5
2019-05-28T03:32:45.521Z,83.8
2019-05-28T03:37:45.483Z,83.9
2019-05-28T03:42:46.303Z,84.3
2019-05-28T03:47:46.324Z,84.3
2019-05-28T03:52:46.311Z,84.3
2019-05-28T03:57:46.317Z,84.2
2019-05-28T04:02:46.267Z,84.1
2019-05-28T04:07:46.288Z,84.4
2019-05-28T04:12:46.782Z,84.2
2019-05-28T04:17:46.897Z,83.9
2019-05-28T04:22:47.929Z,83.8
2019-05-28T04:27:47.955Z,83.5
2019-05-28T04:32:48.428Z,83.5
2019-05-28T04:37:49.300Z,83.4
2019-05-28T04:42:50.300Z,83.6
2019-05-28T04:47:51.152Z,83.5
2019-05-28T04:52:51.846Z,83.3
2019-05-28T04:57:52.041Z,83.3
2019-05-28T05:02:59.126Z,83.5
2019-05-28T05:07:52.076Z,83.9
2019-05-28T05:12:55.989Z,84.2
2019-05-28T05:18:01.117Z,84.4
2019-05-28T05:23:01.088Z,84.5
2019-05-28T05:28:01.254Z,84.8
2019-05-28T05:33:18.474Z,84.7
2019-05-28T05:38:01.116Z,84.7
2019-05-28T05:43:03.855Z,84.7
2019-05-28T05:48:03.961Z,84.6
2019-05-28T05:53:03.887Z,84.4
2019-05-28T05:58:14.353Z,84.1
2019-05-28T06:03:14.355Z,83.9
2019-05-28T06:08:14.308Z,83.3
2019-05-28T06:13:14.306Z,82.5
2019-05-28T06:18:14.993Z,81.8
2019-05-28T06:23:15.105Z,81.1
2019-05-28T06:28:16.228Z,80.7
2019-05-28T06:33:15.248Z,80.5
2019-05-28T06:38:15.248Z,79
2019-05-28T06:43:15.540Z,78.3
2019-05-28T06:48:15.773Z,76.4
2019-05-28T06:53:15.838Z,74.9
2019-05-28T06:58:15.890Z,75.5
2019-05-28T07:03:15.740Z,74.3
2019-05-28T07:08:15.832Z,74
2019-05-28T07:13:15.791Z,73.7
2019-05-28T07:18:15.766Z,73.4
2019-05-28T07:23:15.763Z,72.5
2019-05-28T07:28:15.952Z,72.7
2019-05-28T07:33:16.237Z,71.9
2019-05-28T07:38:16.468Z,70.9
2019-05-28T07:43:17.469Z,71.4
2019-05-28T07:48:17.023Z,71.6
2019-05-28T07:53:17.326Z,71
2019-05-28T07:58:17.291Z,70.7
2019-05-28T08:03:18.284Z,70.7
2019-05-28T08:08:18.275Z,69.5
2019-05-28T08:13:18.284Z,67.9
2019-05-28T08:18:18.281Z,67.5
2019-05-28T08:23:18.221Z,67.9
2019-05-28T08:28:20.128Z,67.5
2019-05-28T08:33:18.487Z,66.5
2019-05-28T08:38:18.761Z,65.8
2019-05-28T08:43:18.821Z,66.1
2019-05-28T08:48:19.009Z,67.4
2019-05-28T08:53:19.103Z,64
2019-05-28T08:58:18.993Z,65.8
2019-05-28T09:03:19.909Z,66.3
2019-05-28T09:08:35.406Z,66.6
2019-05-28T09:13:21.096Z,67
2019-05-28T09:18:21.174Z,67.1
2019-05-28T09:23:21.143Z,67.5
2019-05-28T09:28:29.645Z,65.3
2019-05-28T09:33:21.060Z,65.6
2019-05-28T09:38:21.200Z,64
2019-05-28T09:43:21.122Z,63.3
2019-05-28T09:48:21.346Z,65.7
2019-05-28T09:53:21.331Z,66.1
2019-05-28T09:58:21.321Z,64
2019-05-28T10:03:21.483Z,62
2019-05-28T10:08:21.649Z,62
2019-05-28T10:13:37.138Z,59.4
2019-05-28T10:18:23.961Z,61
2019-05-28T10:23:28.652Z,61.1
2019-05-28T10:28:28.656Z,54.7
2019-05-28T10:33:28.824Z,54.9
2019-05-28T10:38:29.291Z,54.8
2019-05-28T10:43:28.883Z,55.8
2019-05-28T10:48:30.246Z,60
2019-05-28T10:53:29.722Z,63.7
2019-05-28T10:58:32.646Z,63.7
2019-05-28T11:03:31.135Z,65.9
2019-05-28T11:08:31.405Z,67.3
2019-05-28T11:13:52.356Z,68.1
2019-05-28T11:18:40.258Z,67
2019-05-28T11:23:40.350Z,67.9
2019-05-28T11:28:40.291Z,67.2
2019-05-28T11:33:40.478Z,66
2019-05-28T11:38:41.965Z,64.4
2019-05-28T11:43:43.568Z,67.1
2019-05-28T11:48:44.874Z,68
2019-05-28T11:53:44.871Z,65.4
2019-05-28T11:58:44.894Z,64.7
2019-05-28T12:03:45.598Z,63.1
2019-05-28T12:08:48.188Z,64.7
2019-05-28T12:13:54.424Z,65.7
2019-05-28T12:18:58.269Z,65.6
2019-05-28T12:23:59.591Z,66
2019-05-28T12:28:57.247Z,64.3
2019-05-28T12:33:59.658Z,61.6
2019-05-28T12:38:57.116Z,63.8
2019-05-28T12:43:59.269Z,60.3
2019-05-28T12:48:57.206Z,61.2
2019-05-28T12:53:59.770Z,61.9
2019-05-28T12:58:57.813Z,59.4
2019-05-28T13:04:02.792Z,60.2
2019-05-28T13:09:03.068Z,56.5
2019-05-28T13:14:03.715Z,58.5
2019-05-28T13:19:04.407Z,56.2
2019-05-28T13:24:04.354Z,56.7
2019-05-28T13:29:04.562Z,54.9
2019-05-28T13:34:06.247Z,56.4
2019-05-28T13:39:04.868Z,54.5
2019-05-28T13:44:16.479Z,56.2
2019-05-28T13:49:05.872Z,55.4
2019-05-28T13:54:06.307Z,53.2
2019-05-28T13:59:06.433Z,53.4
2019-05-28T14:04:06.600Z,54.8
2019-05-28T14:09:07.427Z,53.7
2019-05-28T14:14:08.036Z,54.6
2019-05-28T14:19:07.369Z,55
2019-05-28T14:24:07.557Z,54.4
2019-05-28T14:29:07.403Z,55.8
2019-05-28T14:34:07.647Z,54
2019-05-28T14:39:07.932Z,53.3
2019-05-28T14:44:08.100Z,54
2019-05-28T14:49:26.437Z,53.3
2019-05-28T14:54:07.926Z,53.8
2019-05-28T14:59:08.003Z,54.3
2019-05-28T15:04:08.090Z,54.5
2019-05-28T15:09:20.042Z,54.7
2019-05-28T15:14:09.972Z,55.4
2019-05-28T15:19:08.740Z,55
2019-05-28T15:24:10.490Z,56.5
2019-05-28T15:29:09.715Z,56.5
2019-05-28T15:34:11.747Z,55.4
2019-05-28T15:39:10.421Z,56.2
2019-05-28T15:44:08.930Z,57
2019-05-28T15:49:09.901Z,59.3
2019-05-28T15:54:08.927Z,61.5
2019-05-28T15:59:09.487Z,61.2
2019-05-28T16:04:09.513Z,60.9
2019-05-28T16:09:12.692Z,60.7
2019-05-28T16:14:11.325Z,61.3
2019-05-28T16:19:11.584Z,62.6
2019-05-28T16:24:11.612Z,62.7
2019-05-28T16:29:11.635Z,61.8
2019-05-28T16:34:11.585Z,61
2019-05-28T16:39:12.662Z,60.6
2019-05-28T16:44:11.545Z,60.4
2019-05-28T16:49:12.063Z,61.1
2019-05-28T16:54:18.961Z,61.3
2019-05-28T16:59:11.879Z,60.2
2019-05-28T17:04:12.056Z,61.3
2019-05-28T17:09:13.932Z,61.5
2019-05-28T17:14:14.712Z,62.1
2019-05-28T17:19:14.387Z,62.6
2019-05-28T17:24:14.682Z,62.5
2019-05-28T17:29:14.805Z,61.7
2019-05-28T17:34:14.690Z,62.1
2019-05-28T17:39:14.755Z,62.2
2019-05-28T17:44:14.738Z,62
2019-05-28T17:49:16.244Z,61.5
2019-05-28T17:54:16.076Z,61.4
2019-05-28T17:59:16.134Z,61.8
2019-05-28T18:04:16.882Z,62.1
2019-05-28T18:09:18.769Z,62.8
2019-05-28T18:14:19.249Z,63.2
2019-05-28T18:19:26.936Z,64.2
2019-05-28T18:24:26.907Z,64.7
2019-05-28T18:29:31.923Z,65.7
2019-05-28T18:34:31.954Z,66.2
2019-05-28T18:39:38.169Z,66
2019-05-28T18:44:39.905Z,65.7
2019-05-28T18:49:41.499Z,65.1
2019-05-28T18:54:40.666Z,65.6
2019-05-28T18:59:43.158Z,66.1
2019-05-28T19:04:44.861Z,66.7
2019-05-28T19:09:42.302Z,66.9
2019-05-28T19:14:45.418Z,66.2
2019-05-28T19:19:42.094Z,65.3
2019-05-28T19:24:41.925Z,65
2019-05-28T19:29:42.174Z,65
2019-05-28T19:34:42.312Z,65
2019-05-28T19:39:45.772Z,65
2019-05-28T19:44:48.972Z,65.3
2019-05-28T19:49:47.920Z,65.7
2019-05-28T19:54:49.778Z,65.9
2019-05-28T19:59:48.195Z,66.1
2019-05-28T20:04:50.083Z,66.6
2019-05-28T20:09:54.235Z,67.2
2019-05-28T20:14:57.159Z,67.8
2019-05-28T20:19:57.574Z,68.5
2019-05-28T20:25:06.911Z,68.6
2019-05-28T20:30:07.171Z,68.9
2019-05-28T20:35:07.664Z,69.4
2019-05-28T20:40:06.312Z,69.6
2019-05-28T20:45:24.693Z,70
2019-05-28T20:50:15.495Z,70.8
2019-05-28T20:55:15.294Z,71.3
2019-05-28T21:00:16.072Z,71.7
2019-05-28T21:05:16.090Z,72.1
2019-05-28T21:10:20.800Z,72
2019-05-28T21:15:22.231Z,72.3
2019-05-28T21:20:23.457Z,72.8
2019-05-28T21:25:23.461Z,73
2019-05-28T21:30:23.480Z,73
2019-05-28T21:35:23.466Z,73.1
2019-05-28T21:40:23.518Z,73.3
2019-05-28T21:45:25.006Z,73.5
2019-05-28T21:50:24.994Z,73.6
2019-05-28T21:55:24.983Z,73.4
2019-05-28T22:00:25.169Z,73.4
2019-05-28T22:05:26.066Z,73.5
2019-05-28T22:10:26.253Z,73.1
2019-05-28T22:15:27.379Z,73.1
2019-05-28T22:20:27.954Z,73.1
2019-05-28T22:25:27.283Z,73
2019-05-28T22:30:26.924Z,73.2
2019-05-28T22:35:26.927Z,72.9
2019-05-28T22:40:28.551Z,72.9
2019-05-28T22:45:28.549Z,73
2019-05-28T22:50:28.537Z,73
2019-05-28T22:55:28.689Z,72.8
2019-05-28T23:00:28.490Z,72.9
2019-05-28T23:05:28.492Z,72.9
2019-05-28T23:10:28.701Z,72.9
2019-05-28T23:15:28.579Z,72.9
2019-05-28T23:20:29.641Z,73
2019-05-28T23:25:28.632Z,73
2019-05-28T23:30:28.583Z,72.9
2019-05-28T23:35:28.883Z,73.2
2019-05-28T23:40:28.530Z,73.3
2019-05-28T23:45:28.564Z,73.4
2019-05-28T23:50:28.559Z,73.5
2019-05-28T23:55:28.553Z,73.7
